Time;durP1;ratioP1;P1;durP2;ratioP2;P2;SDS_P1;SDS_P2;PMS_P1;PMS_P2;Temp;Humidity;BMP_temperature;BMP_pressure;BME280_temperature;BME280_humidity;BME280_pressure;Samples;Min_cycle;Max_cycle;Signal;HPM_P1;HPM_P2
2021/10/05 00:00:39;;;;;;;12.50;3.88;;;;;;;11.62;69.50;101347.97;5012968;28;20041;-66
2021/10/05 00:03:05;;;;;;;7.78;3.85;;;;;;;11.61;69.52;101349.69;4998146;28;20077;-69
2021/10/05 00:05:31;;;;;;;11.43;4.00;;;;;;;11.57;69.58;101346.88;4993183;28;20137;-69
2021/10/05 00:07:57;;;;;;;12.13;4.68;;;;;;;11.44;69.97;101345.41;5012375;28;20037;-67
2021/10/05 00:10:22;;;;;;;12.98;4.40;;;;;;;11.56;69.65;101351.16;5012920;28;20045;-71
2021/10/05 00:12:48;;;;;;;11.10;4.35;;;;;;;11.62;69.65;101346.25;5012616;28;20440;-73
2021/10/05 00:15:15;;;;;;;9.90;4.25;;;;;;;11.60;69.61;101355.69;5012655;28;20048;-71
2021/10/05 00:17:40;;;;;;;17.35;4.82;;;;;;;11.65;69.71;101350.69;4999939;28;20037;-68
2021/10/05 00:20:07;;;;;;;10.20;4.50;;;;;;;11.70;69.84;101345.75;5012608;28;20025;-74
2021/10/05 00:22:33;;;;;;;12.60;4.93;;;;;;;11.85;69.82;101355.91;4977915;28;20115;-68
2021/10/05 00:24:58;;;;;;;14.18;4.32;;;;;;;11.93;69.35;101351.97;5006910;28;20481;-70
2021/10/05 00:27:24;;;;;;;12.25;4.90;;;;;;;12.03;68.42;101351.59;4994785;28;20076;-67
2021/10/05 00:29:49;;;;;;;13.93;4.55;;;;;;;12.10;67.99;101360.53;4994645;28;20556;-71
2021/10/05 00:32:15;;;;;;;11.93;4.57;;;;;;;12.07;67.32;101357.81;4993851;28;20023;-71
2021/10/05 00:34:40;;;;;;;11.13;4.25;;;;;;;12.07;66.78;101366.44;4994306;28;20030;-71
2021/10/05 00:37:06;;;;;;;11.35;3.50;;;;;;;12.04;66.58;101350.81;5007264;28;20461;-71
2021/10/05 00:39:32;;;;;;;13.82;4.10;;;;;;;11.90;66.30;101321.69;4975385;28;20458;-71
2021/10/05 00:41:57;;;;;;;11.90;3.92;;;;;;;12.11;65.95;101351.94;4996023;28;20081;-71
2021/10/05 00:44:34;;;;;;;12.55;4.15;;;;;;;11.82;66.62;101359.25;4995688;28;20022;-70
2021/10/05 00:47:04;;;;;;;13.25;4.18;;;;;;;11.58;67.33;101331.44;4993196;28;20464;-70
2021/10/05 00:49:30;;;;;;;11.98;4.50;;;;;;;11.75;66.69;101329.63;4991546;28;20037;-70
2021/10/05 00:51:59;;;;;;;12.52;4.20;;;;;;;11.80;66.47;101343.66;5011915;28;20034;-72
2021/10/05 00:54:25;;;;;;;13.73;4.35;;;;;;;11.66;67.10;101342.13;4974791;28;20050;-71
2021/10/05 00:56:51;;;;;;;12.77;4.43;;;;;;;11.62;67.01;101337.63;4991585;28;20128;-70
2021/10/05 00:59:16;;;;;;;8.40;3.65;;;;;;;11.60;67.41;101339.25;4997248;28;20049;-72
2021/10/05 01:01:42;;;;;;;10.77;4.25;;;;;;;11.66;66.67;101349.88;4994284;28;20022;-71
2021/10/05 01:04:07;;;;;;;9.77;4.15;;;;;;;11.56;66.72;101327.00;4994905;28;20022;-71
2021/10/05 01:06:33;;;;;;;11.77;3.67;;;;;;;11.41;68.24;101347.84;4992937;28;20026;-70
2021/10/05 01:08:59;;;;;;;12.38;4.93;;;;;;;11.25;69.34;101346.22;4992804;28;20378;-70
2021/10/05 01:11:25;;;;;;;8.85;3.97;;;;;;;11.30;70.38;101349.91;4991973;28;20050;-71
2021/10/05 01:13:50;;;;;;;15.38;3.83;;;;;;;11.39;70.93;101350.38;4992148;28;20084;-71
2021/10/05 01:16:19;;;;;;;8.13;3.80;;;;;;;11.38;71.17;101335.66;4996833;28;20100;-70
2021/10/05 01:18:48;;;;;;;9.53;4.00;;;;;;;11.09;71.44;101309.31;4995146;28;20056;-73
2021/10/05 01:21:13;;;;;;;12.93;3.95;;;;;;;11.13;72.27;101339.66;4992152;28;20644;-72
2021/10/05 01:23:39;;;;;;;11.80;4.13;;;;;;;10.99;73.09;101338.97;4991703;28;20034;-70
2021/10/05 01:26:04;;;;;;;7.90;3.40;;;;;;;10.86;73.47;101322.81;4994038;28;20394;-73
2021/10/05 01:28:31;;;;;;;11.68;3.75;;;;;;;10.70;73.17;101344.41;4994561;28;20018;-72
2021/10/05 01:30:57;;;;;;;10.25;3.35;;;;;;;10.59;73.75;101338.69;4993024;28;20432;-69
2021/10/05 01:33:26;;;;;;;7.30;3.40;;;;;;;10.74;73.94;101342.06;4993380;28;20030;-67
2021/10/05 01:35:52;;;;;;;12.18;3.85;;;;;;;10.59;72.95;101299.94;4994498;28;20124;-68
2021/10/05 01:38:18;;;;;;;7.05;3.65;;;;;;;10.73;72.80;101309.28;4991342;28;20109;-69
2021/10/05 01:40:44;;;;;;;10.90;3.40;;;;;;;10.97;73.05;101330.25;4998394;28;20033;-69
2021/10/05 01:43:09;;;;;;;8.70;3.40;;;;;;;10.98;73.58;101336.34;4996800;28;20378;-72
2021/10/05 01:45:37;;;;;;;15.07;3.58;;;;;;;11.07;72.41;101323.84;4991927;28;20030;-68
2021/10/05 01:48:03;;;;;;;7.47;2.92;;;;;;;10.61;71.68;101238.94;4991405;28;20053;-71
2021/10/05 01:50:29;;;;;;;7.30;3.40;;;;;;;11.20;70.91;101325.31;4995265;28;20030;-69
2021/10/05 01:52:54;;;;;;;10.10;3.60;;;;;;;10.83;71.72;101279.63;4993710;28;20045;-66
2021/10/05 01:55:23;;;;;;;7.75;3.60;;;;;;;10.96;72.22;101330.19;4992266;28;20535;-69
2021/10/05 01:57:49;;;;;;;6.07;3.30;;;;;;;10.99;71.55;101310.56;4992581;28;20061;-68
2021/10/05 02:00:15;;;;;;;6.25;3.25;;;;;;;11.13;71.49;101324.16;4991953;28;20069;-70
2021/10/05 02:02:40;;;;;;;10.80;3.40;;;;;;;11.12;72.16;101329.25;4992023;28;20095;-69
2021/10/05 02:05:07;;;;;;;8.93;3.97;;;;;;;11.17;72.33;101331.22;4990877;28;20080;-70
2021/10/05 02:07:34;;;;;;;8.25;3.67;;;;;;;11.21;71.71;101323.63;4999527;28;20034;-70
2021/10/05 02:10:00;;;;;;;7.90;3.28;;;;;;;11.32;71.00;101327.63;5010153;28;20034;-65
2021/10/05 02:12:27;;;;;;;9.60;3.42;;;;;;;11.27;69.72;101323.94;4977159;28;20137;-70
2021/10/05 02:14:53;;;;;;;12.27;3.58;;;;;;;11.05;69.07;101312.53;5010344;28;20030;-71
2021/10/05 02:17:18;;;;;;;13.68;4.43;;;;;;;10.66;69.26;101287.41;5010298;28;20088;-70
2021/10/05 02:19:44;;;;;;;9.27;4.10;;;;;;;10.97;68.09;101339.72;4994213;28;20046;-68
2021/10/05 02:22:09;;;;;;;6.88;3.90;;;;;;;10.80;67.94;101337.19;5006959;28;20033;-68
2021/10/05 02:24:46;;;;;;;11.98;3.92;;;;;;;10.75;67.94;101338.63;5011135;28;20026;-68
2021/10/05 02:27:17;;;;;;;9.23;3.83;;;;;;;10.54;68.23;101329.81;5011339;28;20048;-66
2021/10/05 02:29:46;;;;;;;8.70;3.83;;;;;;;10.40;68.96;101345.47;5010157;28;20029;-68
2021/10/05 02:32:13;;;;;;;12.25;5.85;;;;;;;10.29;69.21;101342.31;5011168;28;20026;-68
2021/10/05 02:34:40;;;;;;;9.80;5.90;;;;;;;10.27;69.25;101343.94;5011121;28;20034;-71
2021/10/05 02:37:05;;;;;;;15.20;6.93;;;;;;;9.96;70.27;101344.88;5010857;28;20026;-70
2021/10/05 02:39:32;;;;;;;11.60;6.15;;;;;;;10.00;70.29;101340.78;5011257;28;20092;-68
2021/10/05 02:41:57;;;;;;;11.25;6.00;;;;;;;9.93;70.50;101339.56;5011316;28;20034;-67
2021/10/05 02:44:23;;;;;;;11.27;6.05;;;;;;;9.76;70.68;101324.84;5011020;28;20025;-68
2021/10/05 02:46:50;;;;;;;9.30;5.88;;;;;;;9.77;71.20;101342.13;5011281;28;20037;-68
2021/10/05 02:49:16;;;;;;;10.75;5.03;;;;;;;9.88;71.14;101339.31;5010832;28;20048;-68
2021/10/05 02:51:41;;;;;;;8.30;4.88;;;;;;;9.82;71.17;101339.00;4976570;28;20113;-66
2021/10/05 02:54:07;;;;;;;12.75;6.18;;;;;;;9.81;70.78;101328.59;5011042;28;20034;-68
2021/10/05 02:56:33;;;;;;;9.38;4.75;;;;;;;9.82;70.86;101332.94;5014290;28;20030;-67
2021/10/05 02:58:58;;;;;;;10.15;4.85;;;;;;;9.80;70.65;101331.97;5014572;28;20503;-70
2021/10/05 03:01:24;;;;;;;9.25;4.78;;;;;;;9.88;70.29;101320.38;5014555;28;20061;-67
2021/10/05 03:03:49;;;;;;;11.70;4.88;;;;;;;9.99;69.98;101328.69;5014473;28;20507;-68
2021/10/05 03:06:15;;;;;;;8.95;5.05;;;;;;;10.04;69.46;101327.22;5014410;28;20495;-68
2021/10/05 03:08:42;;;;;;;9.57;4.85;;;;;;;9.45;69.79;101292.28;5014639;28;20030;-68
2021/10/05 03:11:09;;;;;;;9.82;4.30;;;;;;;9.59;70.23;101332.56;5014623;28;20046;-68
2021/10/05 03:13:35;;;;;;;9.23;4.43;;;;;;;9.67;69.98;101335.56;5014458;28;20044;-68
2021/10/05 03:16:03;;;;;;;11.52;3.92;;;;;;;9.46;70.43;101328.44;5014303;28;20480;-68
2021/10/05 03:18:28;;;;;;;10.85;4.50;;;;;;;9.59;70.14;101336.84;5014226;28;20385;-70
2021/10/05 03:20:54;;;;;;;11.27;4.72;;;;;;;9.51;70.49;101324.44;5014521;28;20033;-69
2021/10/05 03:23:19;;;;;;;11.63;4.72;;;;;;;9.59;70.06;101330.00;5014357;28;20034;-68
2021/10/05 03:25:45;;;;;;;11.52;4.22;;;;;;;9.74;69.74;101329.94;5014087;28;20048;-71
2021/10/05 03:28:10;;;;;;;10.60;4.53;;;;;;;9.83;69.63;101334.72;5014301;28;20397;-67
2021/10/05 03:30:36;;;;;;;8.60;4.70;;;;;;;9.83;69.25;101340.78;5014081;28;20512;-66
2021/10/05 03:33:01;;;;;;;11.32;4.90;;;;;;;9.86;69.16;101330.59;5013932;28;20049;-71
2021/10/05 03:35:27;;;;;;;9.05;4.50;;;;;;;9.91;68.98;101338.59;5013934;28;20026;-68
2021/10/05 03:37:53;;;;;;;8.75;4.50;;;;;;;9.92;68.59;101336.88;5013861;28;20026;-71
2021/10/05 03:40:18;;;;;;;13.02;5.70;;;;;;;9.83;68.49;101320.13;5013833;28;20093;-68
2021/10/05 03:42:44;;;;;;;11.70;4.22;;;;;;;9.92;68.87;101340.38;5013884;28;20018;-70
2021/10/05 03:45:09;;;;;;;7.35;5.22;;;;;;;9.78;68.98;101326.75;5013611;28;20022;-68
2021/10/05 03:47:38;;;;;;;15.38;5.03;;;;;;;9.73;69.19;101317.84;5013828;28;20072;-71
2021/10/05 03:50:08;;;;;;;15.07;5.07;;;;;;;9.76;69.04;101311.97;5013711;28;20044;-68
2021/10/05 03:52:33;;;;;;;;;;;;;;;9.95;68.57;101337.94;4994718;28;20061;-68
2021/10/05 03:54:59;;;;;;;14.73;5.18;;;;;;;9.92;68.81;101339.47;4994312;28;20365;-66
2021/10/05 03:57:24;;;;;;;15.43;5.10;;;;;;;9.97;68.70;101346.66;5004256;28;20419;-67
2021/10/05 03:59:50;;;;;;;10.70;5.00;;;;;;;10.08;67.84;101349.81;5010254;28;20033;-67
2021/10/05 04:02:15;;;;;;;12.10;4.50;;;;;;;9.99;68.33;101342.50;5000885;28;20090;-67
2021/10/05 04:04:41;;;;;;;14.40;4.75;;;;;;;9.68;69.04;101309.88;4999679;28;20078;-66
2021/10/05 04:07:06;;;;;;;10.38;4.85;;;;;;;9.65;69.17;101344.94;4993521;28;20481;-66
2021/10/05 04:09:32;;;;;;;12.90;4.70;;;;;;;9.51;70.18;101350.19;4993542;28;20550;-67
2021/10/05 04:11:57;;;;;;;13.13;4.90;;;;;;;9.05;71.51;101350.19;5011345;28;20092;-71
2021/10/05 04:14:23;;;;;;;8.30;4.40;;;;;;;8.86;72.44;101353.38;5009012;28;20026;-70
2021/10/05 04:16:48;;;;;;;10.10;4.60;;;;;;;9.00;71.74;101359.34;4994615;28;20026;-66
2021/10/05 04:19:14;;;;;;;13.45;4.43;;;;;;;9.03;71.41;101354.34;4993825;28;20390;-67
2021/10/05 04:21:39;;;;;;;11.43;5.05;;;;;;;8.82;71.28;101312.81;4993528;28;20030;-70
2021/10/05 04:24:05;;;;;;;13.73;5.25;;;;;;;8.99;71.46;101361.03;4993624;28;20097;-67
2021/10/05 04:26:32;;;;;;;13.55;5.30;;;;;;;8.60;72.94;101357.00;5001651;28;20107;-70
2021/10/05 04:28:57;;;;;;;16.33;5.85;;;;;;;8.64;73.75;101369.28;5013103;28;20033;-67
2021/10/05 04:31:22;;;;;;;15.02;5.47;;;;;;;8.62;73.03;101338.28;5012996;28;20401;-67
2021/10/05 04:33:48;;;;;;;13.07;5.03;;;;;;;8.62;73.01;101346.00;4968620;28;20214;-67
2021/10/05 04:36:14;;;;;;;11.75;5.40;;;;;;;8.69;73.41;101365.28;5001936;28;20026;-67
2021/10/05 04:38:39;;;;;;;16.55;6.20;;;;;;;8.81;73.14;101365.09;5003881;28;20481;-66
2021/10/05 04:41:04;;;;;;;16.95;7.72;;;;;;;8.78;73.69;101370.97;5002542;28;20430;-67
2021/10/05 04:43:30;;;;;;;22.92;10.00;;;;;;;8.69;74.22;101371.31;5002118;28;20021;-67
2021/10/05 04:45:55;;;;;;;46.95;22.75;;;;;;;8.40;74.19;101342.13;5003391;28;20033;-69
2021/10/05 04:48:21;;;;;;;26.52;13.32;;;;;;;8.23;75.81;101368.53;5002164;28;20133;-66
2021/10/05 04:50:46;;;;;;;36.85;18.42;;;;;;;8.39;75.36;101383.22;5002823;28;20037;-68
2021/10/05 04:53:15;;;;;;;30.77;12.85;;;;;;;8.28;75.80;101387.69;5003233;28;20084;-67
2021/10/05 04:55:44;;;;;;;25.25;10.98;;;;;;;8.52;75.12;101390.91;5003803;28;20092;-67
2021/10/05 04:58:11;;;;;;;18.20;9.38;;;;;;;8.42;74.66;101343.13;4998023;28;20034;-68
2021/10/05 05:00:38;;;;;;;23.33;9.38;;;;;;;8.73;74.30;101387.81;4992929;28;20051;-67
2021/10/05 05:03:03;;;;;;;26.42;9.57;;;;;;;8.82;74.19;101388.38;4993101;28;20026;-67
2021/10/05 05:05:29;;;;;;;20.45;9.32;;;;;;;8.89;73.64;101393.06;4992796;28;20028;-67
2021/10/05 05:07:59;;;;;;;23.33;9.40;;;;;;;8.93;73.93;101398.41;4993035;28;20097;-68
2021/10/05 05:10:24;;;;;;;21.77;10.32;;;;;;;8.56;74.46;101366.22;4992891;28;20496;-68
2021/10/05 05:12:50;;;;;;;28.35;10.52;;;;;;;8.82;74.69;101413.22;4992798;28;20036;-67
2021/10/05 05:15:16;;;;;;;18.88;8.35;;;;;;;8.64;74.46;101374.44;4992540;28;20397;-67
2021/10/05 05:17:41;;;;;;;18.15;7.70;;;;;;;8.56;74.90;101336.25;4992111;28;20069;-68
2021/10/05 05:20:07;;;;;;;28.35;8.20;;;;;;;9.06;74.75;101411.22;4992744;28;20052;-66
2021/10/05 05:22:33;;;;;;;24.48;8.77;;;;;;;9.20;75.37;101401.72;4991386;28;20057;-70
2021/10/05 05:24:58;;;;;;;22.90;7.78;;;;;;;8.95;75.53;101374.53;5002926;28;20061;-66
2021/10/05 05:27:24;;;;;;;23.75;8.25;;;;;;;9.27;75.66;101413.25;5012159;28;20026;-68
2021/10/05 05:29:51;;;;;;;23.48;8.57;;;;;;;9.19;76.32;101410.22;5011861;28;20377;-68
2021/10/05 05:32:17;;;;;;;35.85;11.65;;;;;;;9.07;77.08;101410.41;5012132;28;20033;-67
2021/10/05 05:34:43;;;;;;;15.60;9.52;;;;;;;8.96;76.92;101365.09;5012142;28;20120;-66
2021/10/05 05:37:09;;;;;;;21.83;8.60;;;;;;;9.27;77.19;101372.03;5012038;28;20062;-66
2021/10/05 05:39:39;;;;;;;23.60;10.45;;;;;;;9.62;76.65;101401.47;5011845;28;20543;-68
2021/10/05 05:42:06;;;;;;;20.77;8.98;;;;;;;9.62;76.54;101404.03;5011980;28;20058;-68
2021/10/05 05:44:32;;;;;;;19.67;7.55;;;;;;;9.80;75.91;101411.94;5012140;28;20084;-67
2021/10/05 05:46:57;;;;;;;18.10;7.93;;;;;;;9.57;75.26;101377.13;5011920;28;20026;-70
2021/10/05 05:49:23;;;;;;;14.15;6.82;;;;;;;9.69;76.78;101404.50;5012054;28;20078;-67
2021/10/05 05:51:48;;;;;;;14.60;7.78;;;;;;;9.69;76.61;101395.84;5011887;28;20496;-71
2021/10/05 05:54:14;;;;;;;17.40;7.72;;;;;;;9.72;76.24;101414.09;5011725;28;20030;-66
2021/10/05 05:56:39;;;;;;;13.52;6.97;;;;;;;9.82;77.09;101403.47;5011817;28;20033;-68
2021/10/05 05:59:05;;;;;;;14.25;7.70;;;;;;;9.77;77.16;101402.34;5011699;28;20034;-69
2021/10/05 06:01:30;;;;;;;16.98;7.78;;;;;;;9.80;76.35;101384.44;5012043;28;20037;-66
2021/10/05 06:03:56;;;;;;;21.17;9.40;;;;;;;10.03;76.74;101410.59;5011904;28;20033;-66
2021/10/05 06:06:21;;;;;;;17.63;9.85;;;;;;;10.14;76.95;101422.41;5011564;28;20041;-68
2021/10/05 06:08:49;;;;;;;16.08;10.15;;;;;;;10.15;77.10;101412.94;5011624;28;20056;-68
2021/10/05 06:11:17;;;;;;;27.75;10.45;;;;;;;10.18;76.60;101420.84;5011506;28;20092;-68
2021/10/05 06:13:42;;;;;;;18.80;10.70;;;;;;;10.23;76.77;101392.72;5011351;28;20033;-68
2021/10/05 06:16:08;;;;;;;17.13;9.02;;;;;;;10.61;77.08;101436.06;5011576;28;20069;-67
2021/10/05 06:18:33;;;;;;;15.52;8.25;;;;;;;10.48;77.23;101388.06;5011613;28;20026;-67
2021/10/05 06:20:59;;;;;;;18.85;9.48;;;;;;;10.89;76.71;101436.59;5011732;28;20034;-71
2021/10/05 06:23:24;;;;;;;15.93;9.40;;;;;;;10.94;76.16;101436.06;4996514;28;20070;-66
2021/10/05 06:25:54;;;;;;;14.90;8.48;;;;;;;10.74;75.96;101409.19;4991842;28;20061;-66
2021/10/05 06:28:20;;;;;;;;;;;;;;;10.87;76.76;101454.63;4992244;28;20033;-70
2021/10/05 06:30:46;;;;;;;14.48;7.38;;;;;;;10.99;77.91;101449.19;4995797;28;20002;-67
2021/10/05 06:33:11;;;;;;;17.20;7.90;;;;;;;10.97;78.26;101458.56;4995689;28;20038;-67
2021/10/05 06:35:36;;;;;;;16.77;10.32;;;;;;;11.08;77.11;101462.59;4995595;28;20030;-68
2021/10/05 06:38:02;;;;;;;21.17;9.32;;;;;;;11.23;76.63;101451.25;4995876;28;20058;-69
2021/10/05 06:40:30;;;;;;;16.80;8.85;;;;;;;11.29;75.85;101446.38;4995536;28;20069;-66
2021/10/05 06:42:56;;;;;;;23.65;11.95;;;;;;;11.21;75.71;101455.47;4995381;28;20032;-68
2021/10/05 06:45:22;;;;;;;43.63;25.75;;;;;;;11.22;76.00;101467.56;4995731;28;20030;-68
2021/10/05 06:47:47;;;;;;;44.70;30.67;;;;;;;11.39;75.74;101452.88;4995730;28;20050;-68
2021/10/05 06:50:15;;;;;;;37.28;22.52;;;;;;;11.33;76.42;101448.31;4999374;28;20397;-68
2021/10/05 06:52:41;;;;;;;28.83;18.52;;;;;;;11.25;76.98;101454.78;5014779;28;20488;-66
2021/10/05 06:55:07;;;;;;;34.10;18.48;;;;;;;11.40;76.68;101454.66;5014671;28;20054;-67
2021/10/05 06:57:33;;;;;;;28.77;15.23;;;;;;;11.55;76.16;101449.34;5014814;28;20477;-71
2021/10/05 06:59:58;;;;;;;31.95;14.48;;;;;;;11.77;75.99;101444.41;5014746;28;20117;-68
2021/10/05 07:02:24;;;;;;;32.22;16.95;;;;;;;11.92;75.62;101457.19;5014394;28;20080;-68
2021/10/05 07:04:50;;;;;;;23.63;11.93;;;;;;;11.81;75.60;101415.28;5014818;28;20026;-70
2021/10/05 07:07:15;;;;;;;18.95;11.10;;;;;;;12.33;74.62;101453.91;5014721;28;20030;-68
2021/10/05 07:09:40;;;;;;;17.67;8.82;;;;;;;12.76;73.24;101458.41;5014676;28;20061;-70
2021/10/05 07:12:06;;;;;;;14.52;8.68;;;;;;;12.79;73.42;101461.13;5014566;28;20030;-68
2021/10/05 07:14:32;;;;;;;15.75;6.53;;;;;;;12.88;72.75;101455.47;5014424;28;20022;-67
2021/10/05 07:16:57;;;;;;;16.10;8.18;;;;;;;13.03;72.44;101466.47;5014740;28;20038;-68
2021/10/05 07:19:23;;;;;;;19.45;7.50;;;;;;;13.13;73.07;101459.97;5014572;28;20022;-68
2021/10/05 07:21:48;;;;;;;19.08;9.45;;;;;;;13.31;72.30;101459.88;5014363;28;20063;-66
2021/10/05 07:24:14;;;;;;;13.43;8.30;;;;;;;13.54;71.33;101466.03;5014325;28;20030;-68
2021/10/05 07:26:39;;;;;;;23.38;11.43;;;;;;;13.68;71.14;101466.63;5014703;28;20030;-66
2021/10/05 07:29:05;;;;;;;37.25;19.13;;;;;;;14.05;69.87;101465.44;5014266;28;20026;-68
2021/10/05 07:31:34;;;;;;;42.13;21.55;;;;;;;14.11;68.90;101423.28;5009841;28;20062;-68
2021/10/05 07:34:03;;;;;;;44.30;22.17;;;;;;;14.40;67.94;101437.34;4994683;28;20030;-68
2021/10/05 07:36:29;;;;;;;44.03;21.65;;;;;;;14.56;67.47;101461.28;4994559;28;20056;-67
2021/10/05 07:38:55;;;;;;;44.78;21.58;;;;;;;14.76;66.82;101466.38;4994927;28;20382;-68
2021/10/05 07:41:20;;;;;;;40.13;19.75;;;;;;;15.05;66.29;101472.56;4993672;28;20041;-71
2021/10/05 07:43:45;;;;;;;28.20;13.95;;;;;;;15.22;66.72;101462.75;4994397;28;20026;-67
2021/10/05 07:46:14;;;;;;;15.07;7.75;;;;;;;15.13;66.76;101462.47;4994603;28;20085;-67
2021/10/05 07:48:39;;;;;;;14.77;6.28;;;;;;;15.20;66.56;101477.41;4994262;28;20101;-68
2021/10/05 07:51:05;;;;;;;17.17;6.28;;;;;;;15.21;67.22;101474.00;4994258;28;20026;-67
2021/10/05 07:53:30;;;;;;;18.73;8.68;;;;;;;15.45;67.99;101475.66;4994197;28;20026;-67
2021/10/05 07:55:56;;;;;;;15.45;6.85;;;;;;;15.63;65.42;101468.44;4994386;28;20030;-68
2021/10/05 07:58:21;;;;;;;15.32;5.50;;;;;;;15.72;64.67;101434.00;4994373;28;20552;-68
2021/10/05 08:00:47;;;;;;;13.02;5.40;;;;;;;16.07;65.54;101462.00;4996944;28;20069;-67
2021/10/05 08:03:12;;;;;;;13.13;5.07;;;;;;;16.03;66.56;101447.13;4994248;28;20030;-68
2021/10/05 08:05:38;;;;;;;33.95;5.50;;;;;;;16.18;64.58;101458.00;4993995;28;20041;-71
2021/10/05 08:08:05;;;;;;;17.33;5.30;;;;;;;16.23;64.43;101459.03;4993992;28;20080;-68
2021/10/05 08:10:41;;;;;;;20.80;6.35;;;;;;;16.19;64.36;101459.78;4994212;28;20205;-68
2021/10/05 08:13:08;;;;;;;28.27;6.70;;;;;;;16.33;64.41;101471.47;4994131;28;20057;-69
2021/10/05 08:15:35;;;;;;;15.02;4.57;;;;;;;16.43;64.15;101471.75;4993959;28;20086;-68
2021/10/05 08:18:03;;;;;;;9.27;3.78;;;;;;;16.49;64.07;101471.94;4994093;28;20037;-68
2021/10/05 08:20:29;;;;;;;8.93;3.65;;;;;;;16.53;62.49;101455.53;4993591;28;20065;-68
2021/10/05 08:22:56;;;;;;;18.05;4.50;;;;;;;16.60;63.44;101459.22;4994264;28;20027;-67
2021/10/05 08:25:23;;;;;;;9.80;3.90;;;;;;;16.56;61.94;101437.38;4993696;28;20030;-71
2021/10/05 08:27:49;;;;;;;13.98;4.35;;;;;;;16.82;62.25;101460.66;4993805;28;20046;-68
2021/10/05 08:30:16;;;;;;;16.10;4.28;;;;;;;17.00;61.80;101459.41;4993715;28;20030;-69
2021/10/05 08:32:42;;;;;;;16.65;4.43;;;;;;;17.00;60.71;101433.34;5003552;28;20157;-68
2021/10/05 08:35:09;;;;;;;23.00;4.28;;;;;;;17.25;60.14;101445.31;5013038;28;20030;-67
2021/10/05 08:37:34;;;;;;;8.43;3.78;;;;;;;17.57;58.80;101451.31;5013221;28;20416;-71
2021/10/05 08:40:00;;;;;;;16.88;4.90;;;;;;;17.42;58.36;101450.91;5012861;28;20104;-68
2021/10/05 08:42:25;;;;;;;9.20;4.40;;;;;;;17.33;59.36;101450.72;5013141;28;20029;-71
2021/10/05 08:44:51;;;;;;;13.68;4.78;;;;;;;17.45;58.03;101456.25;5012851;28;20030;-68
2021/10/05 08:47:18;;;;;;;16.83;3.25;;;;;;;17.76;56.38;101452.63;5012767;28;20083;-68
2021/10/05 08:49:45;;;;;;;8.23;3.20;;;;;;;17.56;55.06;101435.63;5012692;28;20036;-68
2021/10/05 08:52:11;;;;;;;8.40;3.58;;;;;;;17.54;56.53;101446.00;5012076;28;20064;-67
2021/10/05 08:54:41;;;;;;;10.52;4.60;;;;;;;17.76;54.84;101420.41;5012725;28;20068;-68
2021/10/05 08:57:06;;;;;;;;;;;;;;;17.99;54.51;101447.06;5013402;28;20465;-69
2021/10/05 08:59:33;;;;;;;9.55;3.80;;;;;;;17.96;53.94;101439.16;5012795;28;20008;-69
2021/10/05 09:01:58;;;;;;;11.75;3.70;;;;;;;18.13;54.94;101446.47;4995203;28;20029;-67
2021/10/05 09:04:24;;;;;;;11.10;3.60;;;;;;;18.29;53.81;101425.03;5012367;28;20495;-68
2021/10/05 09:06:54;;;;;;;12.38;3.10;;;;;;;18.41;53.14;101430.50;5012260;28;20059;-73
2021/10/05 09:09:21;;;;;;;6.05;3.38;;;;;;;18.58;51.42;101438.72;5012365;28;20033;-69
2021/10/05 09:11:51;;;;;;;7.13;3.63;;;;;;;18.65;50.46;101426.63;5012534;28;20084;-69
2021/10/05 09:14:16;;;;;;;7.70;3.97;;;;;;;18.49;51.62;101430.69;5012327;28;20037;-68
2021/10/05 09:16:43;;;;;;;15.65;4.88;;;;;;;18.69;51.07;101431.06;5012451;28;20022;-69
2021/10/05 09:19:18;;;;;;;18.25;4.53;;;;;;;18.43;50.80;101435.81;5012329;28;20037;-68
2021/10/05 09:21:52;;;;;;;14.32;4.13;;;;;;;18.25;50.44;101425.84;5011991;28;20497;-67
2021/10/05 09:24:32;;;;;;;13.30;5.00;;;;;;;18.32;51.10;101434.66;5003594;28;20080;-69
2021/10/05 09:27:00;;;;;;;21.00;6.60;;;;;;;18.09;50.31;101416.78;5000852;28;20037;-68
2021/10/05 09:29:32;;;;;;;26.13;6.20;;;;;;;18.09;48.72;101429.84;5002563;28;20461;-68
2021/10/05 09:31:59;;;;;;;13.15;3.95;;;;;;;18.18;47.75;101417.00;4997911;28;20026;-69
2021/10/05 09:34:39;;;;;;;9.88;3.80;;;;;;;18.52;44.84;101429.88;4992793;28;20088;-68
2021/10/05 09:37:11;;;;;;;4.00;2.40;;;;;;;18.84;43.62;101421.72;5001257;28;20504;-70
2021/10/05 09:39:39;;;;;;;7.93;3.17;;;;;;;19.10;44.79;101427.44;5011767;28;20029;-69
2021/10/05 09:42:05;;;;;;;10.65;3.50;;;;;;;19.14;44.10;101399.59;5011892;28;20022;-70
2021/10/05 09:44:30;;;;;;;6.88;3.33;;;;;;;19.35;43.72;101391.19;5007686;28;20041;-68
2021/10/05 09:46:55;;;;;;;7.78;2.80;;;;;;;19.68;41.18;101424.88;5011637;28;20585;-68
2021/10/05 09:49:23;;;;;;;6.03;2.78;;;;;;;19.84;40.40;101428.66;5008700;28;20050;-69
2021/10/05 09:51:59;;;;;;;8.13;3.40;;;;;;;20.07;42.19;101425.44;5011982;28;20177;-70
2021/10/05 09:54:26;;;;;;;12.35;3.17;;;;;;;20.03;40.09;101408.78;5011234;28;20552;-73
2021/10/05 09:56:52;;;;;;;11.60;3.08;;;;;;;20.00;41.97;101419.25;5011412;28;20038;-70
2021/10/05 09:59:18;;;;;;;5.78;2.83;;;;;;;20.22;41.10;101418.66;5012035;28;20156;-71
2021/10/05 10:01:43;;;;;;;10.38;3.10;;;;;;;20.33;42.03;101422.28;5011507;28;20673;-68
2021/10/05 10:04:09;;;;;;;11.20;3.00;;;;;;;20.41;40.87;101424.97;5010978;28;20090;-67
2021/10/05 10:06:38;;;;;;;8.50;3.33;;;;;;;20.51;40.69;101417.25;5011626;28;20113;-69
2021/10/05 10:09:05;;;;;;;8.30;2.80;;;;;;;20.66;39.89;101418.25;5011416;28;20060;-70
2021/10/05 10:11:31;;;;;;;7.35;2.80;;;;;;;20.72;39.45;101409.63;5011656;28;20137;-74
2021/10/05 10:13:59;;;;;;;5.78;2.30;;;;;;;20.89;38.23;101417.66;5004676;28;20026;-75
2021/10/05 10:16:25;;;;;;;5.70;3.13;;;;;;;21.01;36.71;101410.78;4991813;28;20121;-68
2021/10/05 10:18:59;;;;;;;5.75;2.55;;;;;;;21.04;35.42;101412.53;4991969;28;20105;-68
2021/10/05 10:21:37;;;;;;;7.38;2.65;;;;;;;21.03;40.29;101410.78;4991868;28;20031;-68
2021/10/05 10:24:15;;;;;;;7.38;3.05;;;;;;;20.89;39.07;101412.41;4991924;28;20037;-68
2021/10/05 10:26:47;;;;;;;9.63;3.47;;;;;;;20.73;41.31;101406.13;4992089;28;20100;-68
2021/10/05 10:29:14;;;;;;;10.85;3.50;;;;;;;20.76;39.20;101404.41;4992249;28;20022;-68
2021/10/05 10:31:41;;;;;;;7.82;2.92;;;;;;;20.51;40.04;101409.38;4992059;28;20030;-68
2021/10/05 10:34:19;;;;;;;8.15;3.00;;;;;;;20.48;39.77;101406.69;4991770;28;20065;-67
2021/10/05 10:36:44;;;;;;;10.30;2.67;;;;;;;20.58;37.52;101405.06;4958215;28;20049;-68
2021/10/05 10:39:16;;;;;;;8.05;2.80;;;;;;;20.54;38.08;101379.66;4958087;28;20113;-68
2021/10/05 10:41:46;;;;;;;8.40;2.70;;;;;;;20.80;37.85;101397.47;4991915;28;20026;-70
2021/10/05 10:44:14;;;;;;;7.78;3.17;;;;;;;21.02;39.70;101393.25;4991869;28;20026;-68
2021/10/05 10:46:42;;;;;;;7.28;2.45;;;;;;;21.11;37.07;101392.44;4992054;28;20038;-68
2021/10/05 10:49:19;;;;;;;8.23;3.22;;;;;;;21.13;36.96;101353.97;4992116;28;20108;-68
2021/10/05 10:51:47;;;;;;;7.97;2.80;;;;;;;21.11;36.62;101387.19;4991953;28;20405;-68
2021/10/05 10:54:17;;;;;;;6.82;2.35;;;;;;;21.33;34.33;101383.00;4991906;28;20048;-68
2021/10/05 10:56:45;;;;;;;10.63;2.78;;;;;;;21.50;34.99;101378.72;4991768;28;20493;-71
2021/10/05 10:59:13;;;;;;;8.05;2.72;;;;;;;21.65;33.65;101385.00;4991977;28;20472;-68
2021/10/05 11:01:45;;;;;;;6.55;2.60;;;;;;;21.89;33.68;101392.13;4992036;28;20027;-68
2021/10/05 11:04:12;;;;;;;5.20;2.88;;;;;;;21.96;33.96;101374.63;4991853;28;20026;-68
2021/10/05 11:06:39;;;;;;;9.20;2.97;;;;;;;22.11;32.60;101374.69;4991803;28;20062;-73
2021/10/05 11:09:06;;;;;;;8.63;2.90;;;;;;;22.24;33.74;101356.31;4991683;28;20477;-67
2021/10/05 11:11:43;;;;;;;10.27;3.20;;;;;;;22.03;35.17;101354.50;4991459;28;20448;-67
2021/10/05 11:14:44;;;;;;;7.22;3.05;;;;;;;21.85;35.69;101344.81;4991776;28;20469;-68
2021/10/05 11:17:10;;;;;;;8.27;3.17;;;;;;;21.95;34.54;101346.59;4933959;29;20526;-68
2021/10/05 11:19:39;;;;;;;5.18;2.47;;;;;;;22.06;33.87;101351.91;4954736;28;20047;-68